sensor_id;sensor_type;location;lat;lon;timestamp;pressure;altitude;pressure_sealevel;temperature;humidity
57248;BME280;55809;46.618;10.764;2023-01-28T00:01:06;92569.78;;;0.54;41.68
57248;BME280;55809;46.618;10.764;2023-01-28T00:03:35;92564.03;;;0.52;41.93
57248;BME280;55809;46.618;10.764;2023-01-28T00:06:03;92572.75;;;0.52;42.51
57248;BME280;55809;46.618;10.764;2023-01-28T00:08:30;92573.19;;;0.54;40.87
57248;BME280;55809;46.618;10.764;2023-01-28T00:10:58;92569.69;;;0.50;40.43
57248;BME280;55809;46.618;10.764;2023-01-28T00:13:26;92574.03;;;0.58;41.03
57248;BME280;55809;46.618;10.764;2023-01-28T00:15:54;92582.00;;;0.42;41.68
57248;BME280;55809;46.618;10.764;2023-01-28T00:18:21;92590.25;;;0.37;41.55
57248;BME280;55809;46.618;10.764;2023-01-28T00:20:56;92595.19;;;0.23;41.27
57248;BME280;55809;46.618;10.764;2023-01-28T00:23:24;92596.84;;;0.28;41.90
57248;BME280;55809;46.618;10.764;2023-01-28T00:25:51;92599.72;;;0.22;42.95
57248;BME280;55809;46.618;10.764;2023-01-28T00:28:19;92609.41;;;0.31;41.56
57248;BME280;55809;46.618;10.764;2023-01-28T00:30:45;92572.22;;;-0.01;41.90
57248;BME280;55809;46.618;10.764;2023-01-28T00:33:12;92621.22;;;0.17;42.79
57248;BME280;55809;46.618;10.764;2023-01-28T00:35:39;92616.91;;;0.13;42.83
57248;BME280;55809;46.618;10.764;2023-01-28T00:38:08;92584.78;;;-0.14;42.67
57248;BME280;55809;46.618;10.764;2023-01-28T00:40:36;92595.38;;;-0.14;42.70
57248;BME280;55809;46.618;10.764;2023-01-28T00:43:02;92627.78;;;0.08;42.91
57248;BME280;55809;46.618;10.764;2023-01-28T00:45:29;92627.72;;;0.04;43.30
57248;BME280;55809;46.618;10.764;2023-01-28T00:47:56;92629.59;;;0.04;43.29
57248;BME280;55809;46.618;10.764;2023-01-28T00:50:23;92631.97;;;0.09;43.57
57248;BME280;55809;46.618;10.764;2023-01-28T00:52:50;92624.28;;;0.04;43.30
57248;BME280;55809;46.618;10.764;2023-01-28T00:55:18;92642.44;;;0.17;45.24
57248;BME280;55809;46.618;10.764;2023-01-28T00:57:45;92642.78;;;0.16;43.27
57248;BME280;55809;46.618;10.764;2023-01-28T01:00:13;92634.41;;;0.14;43.39
57248;BME280;55809;46.618;10.764;2023-01-28T01:02:41;92640.88;;;0.01;44.64
57248;BME280;55809;46.618;10.764;2023-01-28T01:05:08;92640.13;;;0.00;44.39
57248;BME280;55809;46.618;10.764;2023-01-28T01:07:35;92636.06;;;-0.10;45.15
57248;BME280;55809;46.618;10.764;2023-01-28T01:10:08;92649.06;;;-0.05;45.48
57248;BME280;55809;46.618;10.764;2023-01-28T01:12:37;92654.09;;;-0.15;46.54
57248;BME280;55809;46.618;10.764;2023-01-28T01:15:06;92662.47;;;-0.13;46.86
57248;BME280;55809;46.618;10.764;2023-01-28T01:17:35;92591.88;;;-0.74;48.01
57248;BME280;55809;46.618;10.764;2023-01-28T01:20:04;92663.22;;;-0.41;48.29
57248;BME280;55809;46.618;10.764;2023-01-28T01:22:32;92672.97;;;-0.45;47.94
57248;BME280;55809;46.618;10.764;2023-01-28T01:24:59;92673.75;;;-0.57;48.14
57248;BME280;55809;46.618;10.764;2023-01-28T01:27:26;92673.00;;;-0.57;48.90
57248;BME280;55809;46.618;10.764;2023-01-28T01:29:55;92679.16;;;-0.53;49.34
57248;BME280;55809;46.618;10.764;2023-01-28T01:32:23;92679.81;;;-0.56;49.13
57248;BME280;55809;46.618;10.764;2023-01-28T01:34:50;92683.13;;;-0.47;50.07
57248;BME280;55809;46.618;10.764;2023-01-28T01:37:17;92681.47;;;-0.39;50.24
57248;BME280;55809;46.618;10.764;2023-01-28T01:39:44;92675.16;;;-0.47;49.78
57248;BME280;55809;46.618;10.764;2023-01-28T01:42:12;92676.59;;;-0.50;50.24
57248;BME280;55809;46.618;10.764;2023-01-28T01:44:52;92679.16;;;-0.53;50.08
57248;BME280;55809;46.618;10.764;2023-01-28T01:47:24;92695.31;;;-0.58;49.80
57248;BME280;55809;46.618;10.764;2023-01-28T01:49:54;92704.94;;;-0.78;50.86
57248;BME280;55809;46.618;10.764;2023-01-28T01:52:24;92679.09;;;-0.93;51.61
57248;BME280;55809;46.618;10.764;2023-01-28T01:54:55;92701.72;;;-0.72;52.08
57248;BME280;55809;46.618;10.764;2023-01-28T01:57:28;92703.16;;;-0.74;51.99
57248;BME280;55809;46.618;10.764;2023-01-28T01:59:57;92709.13;;;-0.77;52.25
57248;BME280;55809;46.618;10.764;2023-01-28T02:02:35;92716.53;;;-0.71;52.57
57248;BME280;55809;46.618;10.764;2023-01-28T02:05:03;92711.56;;;-0.72;53.02
57248;BME280;55809;46.618;10.764;2023-01-28T02:07:30;92676.47;;;-0.93;53.36
57248;BME280;55809;46.618;10.764;2023-01-28T02:09:57;92717.28;;;-0.70;53.57
57248;BME280;55809;46.618;10.764;2023-01-28T02:12:27;92716.75;;;-0.76;53.09
57248;BME280;55809;46.618;10.764;2023-01-28T02:15:00;92712.34;;;-0.84;53.69
57248;BME280;55809;46.618;10.764;2023-01-28T02:17:28;92693.88;;;-0.92;53.27
57248;BME280;55809;46.618;10.764;2023-01-28T02:19:59;92647.91;;;-1.25;53.08
57248;BME280;55809;46.618;10.764;2023-01-28T02:23:13;92699.50;;;-0.69;53.55
57248;BME280;55809;46.618;10.764;2023-01-28T02:26:13;92705.03;;;-0.62;53.53
57248;BME280;55809;46.618;10.764;2023-01-28T02:28:50;92652.84;;;-0.99;53.39
57248;BME280;55809;46.618;10.764;2023-01-28T02:31:22;92702.59;;;-0.55;52.85
57248;BME280;55809;46.618;10.764;2023-01-28T02:33:56;92697.63;;;-0.57;53.18
57248;BME280;55809;46.618;10.764;2023-01-28T02:36:29;92710.66;;;-0.64;53.47
57248;BME280;55809;46.618;10.764;2023-01-28T02:39:02;92697.06;;;-0.50;53.63
57248;BME280;55809;46.618;10.764;2023-01-28T02:41:39;92698.28;;;-0.60;53.39
57248;BME280;55809;46.618;10.764;2023-01-28T02:44:09;92702.72;;;-0.76;52.74
57248;BME280;55809;46.618;10.764;2023-01-28T02:46:37;92682.09;;;-1.07;53.18
57248;BME280;55809;46.618;10.764;2023-01-28T02:49:25;92713.53;;;-0.93;53.07
57248;BME280;55809;46.618;10.764;2023-01-28T02:52:08;92722.25;;;-0.93;52.59
57248;BME280;55809;46.618;10.764;2023-01-28T02:54:47;92717.41;;;-0.91;52.87
57248;BME280;55809;46.618;10.764;2023-01-28T02:57:26;92729.22;;;-0.88;52.33
57248;BME280;55809;46.618;10.764;2023-01-28T03:00:03;92722.81;;;-0.87;52.49
57248;BME280;55809;46.618;10.764;2023-01-28T03:02:36;92726.59;;;-0.88;53.56
57248;BME280;55809;46.618;10.764;2023-01-28T03:05:13;92726.03;;;-0.94;52.74
57248;BME280;55809;46.618;10.764;2023-01-28T03:07:43;92723.25;;;-0.98;52.80
57248;BME280;55809;46.618;10.764;2023-01-28T03:10:14;92710.91;;;-0.93;53.41
57248;BME280;55809;46.618;10.764;2023-01-28T03:12:43;92704.72;;;-0.98;52.82
57248;BME280;55809;46.618;10.764;2023-01-28T03:15:34;92728.09;;;-1.00;52.86
57248;BME280;55809;46.618;10.764;2023-01-28T03:18:24;92727.88;;;-1.07;53.52
57248;BME280;55809;46.618;10.764;2023-01-28T03:21:11;92729.56;;;-1.14;54.15
57248;BME280;55809;46.618;10.764;2023-01-28T03:24:00;92735.72;;;-1.10;52.28
57248;BME280;55809;46.618;10.764;2023-01-28T03:26:49;92715.97;;;-1.13;51.59
57248;BME280;55809;46.618;10.764;2023-01-28T03:29:35;92691.34;;;-1.26;51.89
57248;BME280;55809;46.618;10.764;2023-01-28T03:32:22;92726.13;;;-1.03;51.30
57248;BME280;55809;46.618;10.764;2023-01-28T03:35:08;92720.94;;;-0.99;51.72
57248;BME280;55809;46.618;10.764;2023-01-28T03:37:54;92718.72;;;-0.97;49.68
57248;BME280;55809;46.618;10.764;2023-01-28T03:40:25;92722.69;;;-1.03;50.45
57248;BME280;55809;46.618;10.764;2023-01-28T03:42:52;92715.09;;;-1.05;50.19
57248;BME280;55809;46.618;10.764;2023-01-28T03:45:21;92721.94;;;-1.04;49.27
57248;BME280;55809;46.618;10.764;2023-01-28T03:47:48;92718.41;;;-1.08;49.78
57248;BME280;55809;46.618;10.764;2023-01-28T03:50:15;92691.13;;;-1.21;49.71
57248;BME280;55809;46.618;10.764;2023-01-28T03:52:42;92714.00;;;-1.04;48.96
57248;BME280;55809;46.618;10.764;2023-01-28T03:55:09;92722.69;;;-1.03;48.66
57248;BME280;55809;46.618;10.764;2023-01-28T03:57:38;92722.91;;;-0.96;48.79
57248;BME280;55809;46.618;10.764;2023-01-28T04:00:07;92717.84;;;-1.01;49.77
57248;BME280;55809;46.618;10.764;2023-01-28T04:02:35;92719.41;;;-1.00;49.44
57248;BME280;55809;46.618;10.764;2023-01-28T04:05:08;92725.25;;;-1.07;49.02
57248;BME280;55809;46.618;10.764;2023-01-28T04:07:37;92711.13;;;-1.11;49.82
57248;BME280;55809;46.618;10.764;2023-01-28T04:10:06;92717.97;;;-0.98;49.53
57248;BME280;55809;46.618;10.764;2023-01-28T04:12:34;92732.19;;;-0.90;49.82
57248;BME280;55809;46.618;10.764;2023-01-28T04:15:04;92735.63;;;-0.89;47.88
57248;BME280;55809;46.618;10.764;2023-01-28T04:17:42;92733.31;;;-0.91;48.91
57248;BME280;55809;46.618;10.764;2023-01-28T04:20:11;92696.09;;;-1.19;47.89
57248;BME280;55809;46.618;10.764;2023-01-28T04:22:39;92744.88;;;-0.96;49.16
57248;BME280;55809;46.618;10.764;2023-01-28T04:25:08;92739.47;;;-0.99;48.66
57248;BME280;55809;46.618;10.764;2023-01-28T04:27:35;92743.13;;;-1.04;49.51
57248;BME280;55809;46.618;10.764;2023-01-28T04:30:02;92751.84;;;-1.03;49.39
57248;BME280;55809;46.618;10.764;2023-01-28T04:32:29;92763.44;;;-1.08;49.80
57248;BME280;55809;46.618;10.764;2023-01-28T04:34:56;92764.50;;;-1.09;49.22
57248;BME280;55809;46.618;10.764;2023-01-28T04:37:24;92771.38;;;-1.08;48.48
57248;BME280;55809;46.618;10.764;2023-01-28T04:39:51;92776.44;;;-1.15;47.85
57248;BME280;55809;46.618;10.764;2023-01-28T04:42:18;92767.06;;;-1.12;48.48
57248;BME280;55809;46.618;10.764;2023-01-28T04:44:45;92777.44;;;-1.07;47.48
57248;BME280;55809;46.618;10.764;2023-01-28T04:47:11;92777.75;;;-1.09;48.36
57248;BME280;55809;46.618;10.764;2023-01-28T04:49:38;92774.03;;;-1.08;49.53
57248;BME280;55809;46.618;10.764;2023-01-28T04:52:05;92766.16;;;-1.16;49.52
57248;BME280;55809;46.618;10.764;2023-01-28T04:54:33;92781.31;;;-1.05;49.04
57248;BME280;55809;46.618;10.764;2023-01-28T04:57:00;92777.91;;;-1.05;49.92
57248;BME280;55809;46.618;10.764;2023-01-28T04:59:27;92781.63;;;-1.06;49.21
57248;BME280;55809;46.618;10.764;2023-01-28T05:01:54;92779.88;;;-1.14;48.89
57248;BME280;55809;46.618;10.764;2023-01-28T05:04:21;92768.34;;;-1.19;48.01
57248;BME280;55809;46.618;10.764;2023-01-28T05:06:48;92784.38;;;-1.03;48.07
57248;BME280;55809;46.618;10.764;2023-01-28T05:09:16;92794.09;;;-1.07;47.33
57248;BME280;55809;46.618;10.764;2023-01-28T05:11:44;92779.19;;;-1.24;47.98
57248;BME280;55809;46.618;10.764;2023-01-28T05:14:11;92800.13;;;-1.19;47.24
57248;BME280;55809;46.618;10.764;2023-01-28T05:16:38;92790.47;;;-1.14;47.94
57248;BME280;55809;46.618;10.764;2023-01-28T05:19:05;92793.41;;;-1.16;48.24
57248;BME280;55809;46.618;10.764;2023-01-28T05:21:32;92789.69;;;-1.15;50.32
57248;BME280;55809;46.618;10.764;2023-01-28T05:23:59;92746.94;;;-1.38;47.75
57248;BME280;55809;46.618;10.764;2023-01-28T05:26:26;92800.16;;;-1.06;49.25
57248;BME280;55809;46.618;10.764;2023-01-28T05:28:55;92762.59;;;-1.33;48.00
57248;BME280;55809;46.618;10.764;2023-01-28T05:31:22;92799.47;;;-1.15;48.04
57248;BME280;55809;46.618;10.764;2023-01-28T05:33:48;92767.13;;;-1.33;48.99
57248;BME280;55809;46.618;10.764;2023-01-28T05:36:17;92786.66;;;-1.26;49.16
57248;BME280;55809;46.618;10.764;2023-01-28T05:38:44;92809.53;;;-1.21;47.85
57248;BME280;55809;46.618;10.764;2023-01-28T05:41:11;92811.72;;;-1.23;48.70
57248;BME280;55809;46.618;10.764;2023-01-28T05:43:38;92820.31;;;-1.26;48.79
57248;BME280;55809;46.618;10.764;2023-01-28T05:46:06;92819.72;;;-1.32;48.79
57248;BME280;55809;46.618;10.764;2023-01-28T05:48:33;92815.13;;;-1.35;47.89
57248;BME280;55809;46.618;10.764;2023-01-28T05:51:00;92777.59;;;-1.70;48.42
57248;BME280;55809;46.618;10.764;2023-01-28T05:53:29;92831.00;;;-1.35;49.80
57248;BME280;55809;46.618;10.764;2023-01-28T05:55:56;92837.19;;;-1.31;49.63
57248;BME280;55809;46.618;10.764;2023-01-28T05:58:23;92816.91;;;-1.27;48.54
57248;BME280;55809;46.618;10.764;2023-01-28T06:00:53;92840.59;;;-1.30;48.42
57248;BME280;55809;46.618;10.764;2023-01-28T06:03:22;92843.44;;;-1.35;49.38
57248;BME280;55809;46.618;10.764;2023-01-28T06:05:49;92851.59;;;-1.40;49.62
57248;BME280;55809;46.618;10.764;2023-01-28T06:08:16;92846.75;;;-1.38;49.58
57248;BME280;55809;46.618;10.764;2023-01-28T06:10:45;92856.00;;;-1.45;49.75
57248;BME280;55809;46.618;10.764;2023-01-28T06:13:12;92839.84;;;-1.52;49.44
57248;BME280;55809;46.618;10.764;2023-01-28T06:15:40;92853.09;;;-1.52;49.64
57248;BME280;55809;46.618;10.764;2023-01-28T06:18:07;92854.41;;;-1.58;50.77
57248;BME280;55809;46.618;10.764;2023-01-28T06:20:36;92861.66;;;-1.55;50.08
57248;BME280;55809;46.618;10.764;2023-01-28T06:23:03;92861.66;;;-1.55;49.61
57248;BME280;55809;46.618;10.764;2023-01-28T06:25:29;92837.09;;;-1.76;50.35
57248;BME280;55809;46.618;10.764;2023-01-28T06:27:56;92869.19;;;-1.57;50.08
57248;BME280;55809;46.618;10.764;2023-01-28T06:30:23;92873.56;;;-1.61;50.01
57248;BME280;55809;46.618;10.764;2023-01-28T06:32:53;92871.16;;;-1.75;50.65
57248;BME280;55809;46.618;10.764;2023-01-28T06:35:20;92887.88;;;-1.62;50.60
57248;BME280;55809;46.618;10.764;2023-01-28T06:37:48;92889.56;;;-1.57;50.56
57248;BME280;55809;46.618;10.764;2023-01-28T06:40:17;92892.78;;;-1.52;50.79
57248;BME280;55809;46.618;10.764;2023-01-28T06:42:44;92900.41;;;-1.50;50.98
57248;BME280;55809;46.618;10.764;2023-01-28T06:45:12;92891.63;;;-1.42;50.33
57248;BME280;55809;46.618;10.764;2023-01-28T06:47:40;92859.22;;;-1.60;50.95
57248;BME280;55809;46.618;10.764;2023-01-28T06:50:09;92898.78;;;-1.43;51.13
57248;BME280;55809;46.618;10.764;2023-01-28T06:52:36;92900.03;;;-1.40;49.89
57248;BME280;55809;46.618;10.764;2023-01-28T06:55:05;92897.44;;;-1.49;49.95
57248;BME280;55809;46.618;10.764;2023-01-28T06:57:32;92898.16;;;-1.60;50.00
57248;BME280;55809;46.618;10.764;2023-01-28T06:59:59;92908.41;;;-1.59;50.28
57248;BME280;55809;46.618;10.764;2023-01-28T07:02:26;92909.31;;;-1.55;50.50
57248;BME280;55809;46.618;10.764;2023-01-28T07:04:52;92909.31;;;-1.55;50.67
57248;BME280;55809;46.618;10.764;2023-01-28T07:07:19;92916.47;;;-1.55;50.57
57248;BME280;55809;46.618;10.764;2023-01-28T07:09:48;92916.22;;;-1.62;51.13
57248;BME280;55809;46.618;10.764;2023-01-28T07:12:16;92915.13;;;-1.61;51.40
57248;BME280;55809;46.618;10.764;2023-01-28T07:14:43;92921.63;;;-1.59;51.17
57248;BME280;55809;46.618;10.764;2023-01-28T07:17:10;92923.56;;;-1.68;51.26
57248;BME280;55809;46.618;10.764;2023-01-28T07:19:37;92931.97;;;-1.66;51.09
57248;BME280;55809;46.618;10.764;2023-01-28T07:22:04;92933.78;;;-1.58;50.42
57248;BME280;55809;46.618;10.764;2023-01-28T07:24:32;92939.09;;;-1.58;51.25
57248;BME280;55809;46.618;10.764;2023-01-28T07:26:59;92942.28;;;-1.52;50.84
57248;BME280;55809;46.618;10.764;2023-01-28T07:29:28;92951.00;;;-1.52;50.25
57248;BME280;55809;46.618;10.764;2023-01-28T07:31:57;92951.13;;;-1.48;51.88
57248;BME280;55809;46.618;10.764;2023-01-28T07:34:24;92947.97;;;-1.42;52.37
57248;BME280;55809;46.618;10.764;2023-01-28T07:36:51;92945.16;;;-1.36;51.74
57248;BME280;55809;46.618;10.764;2023-01-28T07:39:18;92955.09;;;-1.33;52.01
57248;BME280;55809;46.618;10.764;2023-01-28T07:41:44;92949.94;;;-1.30;50.75
57248;BME280;55809;46.618;10.764;2023-01-28T07:44:13;92951.03;;;-1.31;50.75
57248;BME280;55809;46.618;10.764;2023-01-28T07:46:41;92950.25;;;-1.31;50.58
57248;BME280;55809;46.618;10.764;2023-01-28T07:49:12;92960.91;;;-1.19;50.99
57248;BME280;55809;46.618;10.764;2023-01-28T07:51:40;92963.41;;;-1.23;50.64
57248;BME280;55809;46.618;10.764;2023-01-28T07:54:08;92960.34;;;-1.25;51.46
57248;BME280;55809;46.618;10.764;2023-01-28T07:56:36;92954.41;;;-1.22;50.64
57248;BME280;55809;46.618;10.764;2023-01-28T07:59:03;92956.84;;;-1.16;50.92
57248;BME280;55809;46.618;10.764;2023-01-28T08:01:30;92967.19;;;-1.24;51.84
57248;BME280;55809;46.618;10.764;2023-01-28T08:03:59;92966.41;;;-1.24;51.34
57248;BME280;55809;46.618;10.764;2023-01-28T08:06:27;92967.31;;;-1.20;51.76
57248;BME280;55809;46.618;10.764;2023-01-28T08:08:54;92967.25;;;-1.11;50.29
57248;BME280;55809;46.618;10.764;2023-01-28T08:11:21;92964.78;;;-1.16;50.14
57248;BME280;55809;46.618;10.764;2023-01-28T08:13:49;92961.16;;;-1.12;51.15
57248;BME280;55809;46.618;10.764;2023-01-28T08:16:17;92949.47;;;-1.32;50.51
57248;BME280;55809;46.618;10.764;2023-01-28T08:18:44;92969.09;;;-1.12;50.30
57248;BME280;55809;46.618;10.764;2023-01-28T08:21:14;92967.31;;;-1.20;51.31
57248;BME280;55809;46.618;10.764;2023-01-28T08:23:42;92975.84;;;-1.14;51.78
57248;BME280;55809;46.618;10.764;2023-01-28T08:26:09;92970.66;;;-1.11;51.08
57248;BME280;55809;46.618;10.764;2023-01-28T08:28:36;92975.63;;;-1.09;52.23
57248;BME280;55809;46.618;10.764;2023-01-28T08:31:03;92974.66;;;-1.05;50.28
57248;BME280;55809;46.618;10.764;2023-01-28T08:33:30;92984.41;;;-0.97;50.75
57248;BME280;55809;46.618;10.764;2023-01-28T08:36:01;92978.72;;;-0.86;49.91
57248;BME280;55809;46.618;10.764;2023-01-28T08:38:29;92984.53;;;-0.72;49.13
57248;BME280;55809;46.618;10.764;2023-01-28T08:40:56;92973.81;;;-0.63;48.96
57248;BME280;55809;46.618;10.764;2023-01-28T08:43:24;92981.69;;;-0.09;48.88
57248;BME280;55809;46.618;10.764;2023-01-28T08:45:51;92991.53;;;0.39;48.16
57248;BME280;55809;46.618;10.764;2023-01-28T08:48:18;92988.50;;;0.78;46.79
57248;BME280;55809;46.618;10.764;2023-01-28T08:50:46;92988.66;;;1.09;45.76
57248;BME280;55809;46.618;10.764;2023-01-28T08:53:16;92995.19;;;1.40;45.13
57248;BME280;55809;46.618;10.764;2023-01-28T08:55:45;92996.78;;;1.57;45.48
57248;BME280;55809;46.618;10.764;2023-01-28T08:58:14;92999.34;;;1.81;44.23
57248;BME280;55809;46.618;10.764;2023-01-28T09:00:41;92995.41;;;2.07;44.48
57248;BME280;55809;46.618;10.764;2023-01-28T09:03:09;93004.06;;;2.35;42.25
57248;BME280;55809;46.618;10.764;2023-01-28T09:05:37;92999.06;;;2.50;41.92
57248;BME280;55809;46.618;10.764;2023-01-28T09:08:06;93005.50;;;2.80;41.96
57248;BME280;55809;46.618;10.764;2023-01-28T09:10:34;93006.38;;;3.04;41.40
57248;BME280;55809;46.618;10.764;2023-01-28T09:13:14;93004.66;;;3.31;41.36
57248;BME280;55809;46.618;10.764;2023-01-28T09:15:42;93006.56;;;3.50;40.57
57248;BME280;55809;46.618;10.764;2023-01-28T09:18:13;93011.53;;;3.71;40.26
57248;BME280;55809;46.618;10.764;2023-01-28T09:20:41;93007.09;;;3.79;39.52
57248;BME280;55809;46.618;10.764;2023-01-28T09:23:09;92956.06;;;3.61;38.63
57248;BME280;55809;46.618;10.764;2023-01-28T09:25:36;93004.19;;;3.87;37.43
57248;BME280;55809;46.618;10.764;2023-01-28T09:28:05;93002.88;;;3.78;39.06
57248;BME280;55809;46.618;10.764;2023-01-28T09:30:32;93016.34;;;3.85;38.97
57248;BME280;55809;46.618;10.764;2023-01-28T09:32:59;92964.41;;;3.59;39.40
57248;BME280;55809;46.618;10.764;2023-01-28T09:35:26;93001.72;;;3.98;39.08
57248;BME280;55809;46.618;10.764;2023-01-28T09:37:56;93016.63;;;3.99;39.38
57248;BME280;55809;46.618;10.764;2023-01-28T09:40:30;92986.84;;;3.78;39.40
57248;BME280;55809;46.618;10.764;2023-01-28T09:45:55;92952.69;;;3.87;38.58
57248;BME280;55809;46.618;10.764;2023-01-28T09:48:27;93018.31;;;4.30;38.42
57248;BME280;55809;46.618;10.764;2023-01-28T09:50:58;93021.50;;;4.16;38.27
57248;BME280;55809;46.618;10.764;2023-01-28T09:53:29;93027.44;;;4.29;36.70
57248;BME280;55809;46.618;10.764;2023-01-28T09:56:00;93022.88;;;4.30;38.60
57248;BME280;55809;46.618;10.764;2023-01-28T09:58:30;93012.94;;;4.53;37.08
57248;BME280;55809;46.618;10.764;2023-01-28T10:01:06;93012.81;;;4.69;36.30
57248;BME280;55809;46.618;10.764;2023-01-28T10:03:52;93018.31;;;4.80;36.77
57248;BME280;55809;46.618;10.764;2023-01-28T10:06:27;93013.03;;;4.83;36.98
57248;BME280;55809;46.618;10.764;2023-01-28T10:09:15;93006.19;;;4.86;36.24
57248;BME280;55809;46.618;10.764;2023-01-28T10:11:57;93009.25;;;4.84;36.93
57248;BME280;55809;46.618;10.764;2023-01-28T10:14:41;93007.53;;;4.99;36.92
57248;BME280;55809;46.618;10.764;2023-01-28T10:17:15;92974.19;;;4.93;35.33
57248;BME280;55809;46.618;10.764;2023-01-28T10:19:47;92992.66;;;5.02;35.53
57248;BME280;55809;46.618;10.764;2023-01-28T10:22:19;92992.03;;;5.12;36.96
57248;BME280;55809;46.618;10.764;2023-01-28T10:24:57;92981.19;;;5.01;35.42
57248;BME280;55809;46.618;10.764;2023-01-28T10:27:29;92978.38;;;4.90;35.93
57248;BME280;55809;46.618;10.764;2023-01-28T10:29:58;92977.97;;;4.88;36.49
57248;BME280;55809;46.618;10.764;2023-01-28T10:32:30;92984.16;;;4.96;36.57
57248;BME280;55809;46.618;10.764;2023-01-28T10:35:00;92972.66;;;4.92;36.42
57248;BME280;55809;46.618;10.764;2023-01-28T10:37:29;92968.22;;;4.50;37.73
57248;BME280;55809;46.618;10.764;2023-01-28T10:39:58;92973.53;;;4.46;35.94
57248;BME280;55809;46.618;10.764;2023-01-28T10:42:29;92974.66;;;4.22;37.00
57248;BME280;55809;46.618;10.764;2023-01-28T10:44:58;92961.25;;;3.96;37.68
57248;BME280;55809;46.618;10.764;2023-01-28T10:47:34;92957.69;;;4.11;38.30
57248;BME280;55809;46.618;10.764;2023-01-28T10:50:09;92972.66;;;4.39;36.86
57248;BME280;55809;46.618;10.764;2023-01-28T10:52:51;92959.91;;;4.55;37.19
57248;BME280;55809;46.618;10.764;2023-01-28T10:55:18;92954.72;;;4.92;36.08
57248;BME280;55809;46.618;10.764;2023-01-28T10:57:48;92950.81;;;5.16;35.95
57248;BME280;55809;46.618;10.764;2023-01-28T11:00:23;92944.31;;;5.14;36.62
57248;BME280;55809;46.618;10.764;2023-01-28T11:02:54;92937.28;;;5.36;35.66
57248;BME280;55809;46.618;10.764;2023-01-28T11:05:26;92929.56;;;5.27;36.16
57248;BME280;55809;46.618;10.764;2023-01-28T11:08:08;92921.78;;;5.18;35.85
57248;BME280;55809;46.618;10.764;2023-01-28T11:10:39;92929.41;;;5.16;35.98
57248;BME280;55809;46.618;10.764;2023-01-28T11:13:15;92917.66;;;5.25;35.13
57248;BME280;55809;46.618;10.764;2023-01-28T11:15:46;92915.75;;;5.25;34.84
57248;BME280;55809;46.618;10.764;2023-01-28T11:18:18;92911.16;;;5.26;35.07
57248;BME280;55809;46.618;10.764;2023-01-28T11:20:52;92908.94;;;5.31;35.29
57248;BME280;55809;46.618;10.764;2023-01-28T11:23:23;92895.03;;;5.18;34.81
57248;BME280;55809;46.618;10.764;2023-01-28T11:26:07;92895.66;;;5.38;35.17
57248;BME280;55809;46.618;10.764;2023-01-28T11:28:41;92831.75;;;5.00;35.02
57248;BME280;55809;46.618;10.764;2023-01-28T11:31:12;92889.25;;;5.47;34.89
57248;BME280;55809;46.618;10.764;2023-01-28T11:33:46;92892.66;;;5.44;35.02
57248;BME280;55809;46.618;10.764;2023-01-28T11:36:17;92894.50;;;5.39;35.21
57248;BME280;55809;46.618;10.764;2023-01-28T11:38:49;92854.66;;;5.31;33.65
57248;BME280;55809;46.618;10.764;2023-01-28T11:41:18;92880.03;;;5.44;35.04
57248;BME280;55809;46.618;10.764;2023-01-28T11:43:48;92874.25;;;5.42;35.02
57248;BME280;55809;46.618;10.764;2023-01-28T11:49:17;92858.56;;;5.37;35.75
57248;BME280;55809;46.618;10.764;2023-01-28T11:51:50;92839.25;;;5.21;35.36
57248;BME280;55809;46.618;10.764;2023-01-28T11:54:28;92844.88;;;5.49;34.07
57248;BME280;55809;46.618;10.764;2023-01-28T11:57:06;92838.00;;;5.48;34.77
57248;BME280;55809;46.618;10.764;2023-01-28T12:00:03;92839.47;;;5.42;34.51
57248;BME280;55809;46.618;10.764;2023-01-28T12:02:47;92818.44;;;5.40;33.73
57248;BME280;55809;46.618;10.764;2023-01-28T12:05:41;92822.56;;;5.31;35.16
57248;BME280;55809;46.618;10.764;2023-01-28T12:08:19;92820.16;;;5.22;35.43
57248;BME280;55809;46.618;10.764;2023-01-28T12:11:12;92812.22;;;5.33;35.09
57248;BME280;55809;46.618;10.764;2023-01-28T12:13:54;92783.31;;;5.05;34.97
57248;BME280;55809;46.618;10.764;2023-01-28T12:16:48;92807.69;;;5.37;34.60
57248;BME280;55809;46.618;10.764;2023-01-28T12:19:47;92813.41;;;5.35;34.70
57248;BME280;55809;46.618;10.764;2023-01-28T12:25:32;92785.31;;;5.15;34.89
57248;BME280;55809;46.618;10.764;2023-01-28T12:28:10;92815.03;;;5.44;35.60
57248;BME280;55809;46.618;10.764;2023-01-28T12:30:56;92808.44;;;5.34;35.44
57248;BME280;55809;46.618;10.764;2023-01-28T12:33:50;92804.59;;;5.31;35.27
57248;BME280;55809;46.618;10.764;2023-01-28T12:36:31;92810.19;;;5.19;35.79
57248;BME280;55809;46.618;10.764;2023-01-28T12:39:11;92757.56;;;4.93;35.59
57248;BME280;55809;46.618;10.764;2023-01-28T12:41:47;92804.84;;;5.19;35.71
57248;BME280;55809;46.618;10.764;2023-01-28T12:44:19;92814.78;;;5.18;34.96
57248;BME280;55809;46.618;10.764;2023-01-28T12:46:50;92802.59;;;5.25;35.31
57248;BME280;55809;46.618;10.764;2023-01-28T12:49:23;92799.06;;;5.13;35.63
57248;BME280;55809;46.618;10.764;2023-01-28T12:52:00;92804.00;;;5.11;36.26
57248;BME280;55809;46.618;10.764;2023-01-28T12:54:34;92805.53;;;5.12;36.13
57248;BME280;55809;46.618;10.764;2023-01-28T12:57:08;92798.63;;;5.08;36.35
57248;BME280;55809;46.618;10.764;2023-01-28T12:59:42;92796.06;;;4.85;36.08
57248;BME280;55809;46.618;10.764;2023-01-28T13:02:22;92801.09;;;4.56;36.82
57248;BME280;55809;46.618;10.764;2023-01-28T13:04:55;92798.28;;;4.45;37.16
57248;BME280;55809;46.618;10.764;2023-01-28T13:07:32;92793.69;;;4.46;37.43
57248;BME280;55809;46.618;10.764;2023-01-28T13:10:05;92785.22;;;4.40;37.09
57248;BME280;55809;46.618;10.764;2023-01-28T13:12:44;92790.00;;;4.54;37.07
57248;BME280;55809;46.618;10.764;2023-01-28T13:15:16;92780.81;;;4.52;37.12
57248;BME280;55809;46.618;10.764;2023-01-28T13:17:54;92783.38;;;4.44;37.02
57248;BME280;55809;46.618;10.764;2023-01-28T13:20:37;92788.06;;;4.51;36.74
57248;BME280;55809;46.618;10.764;2023-01-28T13:23:05;92787.16;;;4.43;37.13
57248;BME280;55809;46.618;10.764;2023-01-28T13:25:48;92786.75;;;4.38;37.58